sensor_id;sensor_type;location;lat;lon;timestamp;P1;durP1;ratioP1;P2;durP2;ratioP2
20443;SDS011;10381;53.730;10.010;2022-08-01T00:00:35;58.70;;;37.73;;
20443;SDS011;10381;53.730;10.010;2022-08-01T00:04:36;66.63;;;39.67;;
20443;SDS011;10381;53.730;10.010;2022-08-01T00:08:36;63.77;;;40.80;;
20443;SDS011;10381;53.730;10.010;2022-08-01T00:12:37;71.40;;;41.90;;
20443;SDS011;10381;53.730;10.010;2022-08-01T00:16:37;64.30;;;41.08;;
20443;SDS011;10381;53.730;10.010;2022-08-01T00:20:38;63.60;;;39.50;;
20443;SDS011;10381;53.730;10.010;2022-08-01T00:24:38;72.10;;;40.47;;
20443;SDS011;10381;53.730;10.010;2022-08-01T00:28:38;64.97;;;39.83;;
20443;SDS011;10381;53.730;10.010;2022-08-01T00:32:40;76.50;;;41.35;;
20443;SDS011;10381;53.730;10.010;2022-08-01T00:36:43;77.22;;;40.17;;
20443;SDS011;10381;53.730;10.010;2022-08-01T00:40:43;69.17;;;41.20;;
20443;SDS011;10381;53.730;10.010;2022-08-01T00:44:44;74.83;;;40.13;;
20443;SDS011;10381;53.730;10.010;2022-08-01T00:48:44;72.00;;;39.20;;
20443;SDS011;10381;53.730;10.010;2022-08-01T00:52:44;69.10;;;35.97;;
20443;SDS011;10381;53.730;10.010;2022-08-01T00:56:45;73.40;;;38.50;;
20443;SDS011;10381;53.730;10.010;2022-08-01T01:00:45;65.55;;;36.58;;
20443;SDS011;10381;53.730;10.010;2022-08-01T01:04:45;57.33;;;35.05;;
20443;SDS011;10381;53.730;10.010;2022-08-01T01:13:13;73.25;;;36.17;;
20443;SDS011;10381;53.730;10.010;2022-08-01T01:17:27;62.08;;;36.28;;
20443;SDS011;10381;53.730;10.010;2022-08-01T01:30:00;62.10;;;36.75;;
20443;SDS011;10381;53.730;10.010;2022-08-01T01:34:01;65.13;;;38.67;;
20443;SDS011;10381;53.730;10.010;2022-08-01T01:38:05;67.28;;;39.38;;
20443;SDS011;10381;53.730;10.010;2022-08-01T01:42:10;65.97;;;40.88;;
20443;SDS011;10381;53.730;10.010;2022-08-01T01:46:11;65.50;;;41.40;;
20443;SDS011;10381;53.730;10.010;2022-08-01T01:50:15;71.35;;;40.40;;
20443;SDS011;10381;53.730;10.010;2022-08-01T01:54:19;60.28;;;40.17;;
20443;SDS011;10381;53.730;10.010;2022-08-01T01:58:21;56.60;;;43.17;;
20443;SDS011;10381;53.730;10.010;2022-08-01T02:02:23;56.33;;;43.30;;
20443;SDS011;10381;53.730;10.010;2022-08-01T02:06:24;60.10;;;45.97;;
20443;SDS011;10381;53.730;10.010;2022-08-01T02:10:26;56.70;;;43.90;;
20443;SDS011;10381;53.730;10.010;2022-08-01T02:14:28;52.15;;;42.30;;
20443;SDS011;10381;53.730;10.010;2022-08-01T02:18:30;66.97;;;47.20;;
20443;SDS011;10381;53.730;10.010;2022-08-01T02:22:31;66.20;;;52.33;;
20443;SDS011;10381;53.730;10.010;2022-08-01T02:26:35;74.28;;;60.55;;
20443;SDS011;10381;53.730;10.010;2022-08-01T02:30:42;70.35;;;60.38;;
20443;SDS011;10381;53.730;10.010;2022-08-01T02:34:46;71.90;;;64.28;;
20443;SDS011;10381;53.730;10.010;2022-08-01T02:38:49;76.47;;;68.05;;
20443;SDS011;10381;53.730;10.010;2022-08-01T02:42:50;74.93;;;67.20;;
20443;SDS011;10381;53.730;10.010;2022-08-01T02:46:56;75.30;;;67.47;;
20443;SDS011;10381;53.730;10.010;2022-08-01T02:51:02;72.32;;;64.53;;
20443;SDS011;10381;53.730;10.010;2022-08-01T02:55:04;68.95;;;61.72;;
20443;SDS011;10381;53.730;10.010;2022-08-01T02:59:10;81.15;;;65.38;;
20443;SDS011;10381;53.730;10.010;2022-08-01T03:03:14;72.32;;;64.68;;
20443;SDS011;10381;53.730;10.010;2022-08-01T03:07:16;72.15;;;65.30;;
20443;SDS011;10381;53.730;10.010;2022-08-01T03:11:18;71.55;;;61.63;;
20443;SDS011;10381;53.730;10.010;2022-08-01T03:15:20;73.18;;;61.80;;
20443;SDS011;10381;53.730;10.010;2022-08-01T03:19:25;68.13;;;61.00;;
20443;SDS011;10381;53.730;10.010;2022-08-01T03:23:27;80.60;;;63.00;;
20443;SDS011;10381;53.730;10.010;2022-08-01T03:27:29;74.85;;;66.63;;
20443;SDS011;10381;53.730;10.010;2022-08-01T03:31:31;75.90;;;68.13;;
20443;SDS011;10381;53.730;10.010;2022-08-01T03:35:34;73.68;;;64.53;;
20443;SDS011;10381;53.730;10.010;2022-08-01T03:39:44;76.63;;;66.50;;
20443;SDS011;10381;53.730;10.010;2022-08-01T03:43:51;76.00;;;66.43;;
20443;SDS011;10381;53.730;10.010;2022-08-01T03:47:59;82.07;;;71.10;;
20443;SDS011;10381;53.730;10.010;2022-08-01T03:52:02;87.13;;;64.75;;
20443;SDS011;10381;53.730;10.010;2022-08-01T03:56:04;66.22;;;59.60;;
20443;SDS011;10381;53.730;10.010;2022-08-01T04:00:08;73.50;;;63.63;;
20443;SDS011;10381;53.730;10.010;2022-08-01T04:04:09;60.95;;;54.55;;
20443;SDS011;10381;53.730;10.010;2022-08-01T04:08:10;60.53;;;54.30;;
20443;SDS011;10381;53.730;10.010;2022-08-01T04:12:11;62.37;;;55.60;;
20443;SDS011;10381;53.730;10.010;2022-08-01T04:16:11;62.13;;;55.50;;
20443;SDS011;10381;53.730;10.010;2022-08-01T04:20:11;60.23;;;53.97;;
20443;SDS011;10381;53.730;10.010;2022-08-01T04:24:14;65.57;;;58.00;;
20443;SDS011;10381;53.730;10.010;2022-08-01T04:28:17;63.80;;;57.08;;
20443;SDS011;10381;53.730;10.010;2022-08-01T04:32:19;78.55;;;59.42;;
20443;SDS011;10381;53.730;10.010;2022-08-01T04:36:22;64.07;;;57.40;;
20443;SDS011;10381;53.730;10.010;2022-08-01T04:40:24;70.40;;;63.00;;
20443;SDS011;10381;53.730;10.010;2022-08-01T04:44:26;74.68;;;66.90;;
20443;SDS011;10381;53.730;10.010;2022-08-01T04:48:27;92.93;;;83.80;;
20443;SDS011;10381;53.730;10.010;2022-08-01T04:52:35;159.40;;;144.57;;
20443;SDS011;10381;53.730;10.010;2022-08-01T04:56:37;142.52;;;129.63;;
20443;SDS011;10381;53.730;10.010;2022-08-01T05:00:37;121.73;;;110.87;;
20443;SDS011;10381;53.730;10.010;2022-08-01T05:04:38;108.80;;;99.20;;
20443;SDS011;10381;53.730;10.010;2022-08-01T05:08:39;110.40;;;99.93;;
20443;SDS011;10381;53.730;10.010;2022-08-01T05:12:41;102.85;;;93.55;;
20443;SDS011;10381;53.730;10.010;2022-08-01T05:16:41;98.77;;;90.17;;
20443;SDS011;10381;53.730;10.010;2022-08-01T05:20:41;99.30;;;90.60;;
20443;SDS011;10381;53.730;10.010;2022-08-01T05:24:42;101.13;;;92.25;;
20443;SDS011;10381;53.730;10.010;2022-08-01T05:28:42;93.97;;;85.68;;
20443;SDS011;10381;53.730;10.010;2022-08-01T05:32:42;105.47;;;95.73;;
20443;SDS011;10381;53.730;10.010;2022-08-01T05:36:43;107.97;;;98.50;;
20443;SDS011;10381;53.730;10.010;2022-08-01T05:40:43;98.45;;;89.45;;
20443;SDS011;10381;53.730;10.010;2022-08-01T05:44:44;110.38;;;100.55;;
20443;SDS011;10381;53.730;10.010;2022-08-01T05:48:44;130.43;;;119.27;;
20443;SDS011;10381;53.730;10.010;2022-08-01T05:52:44;138.27;;;126.43;;
20443;SDS011;10381;53.730;10.010;2022-08-01T05:56:44;141.30;;;128.37;;
20443;SDS011;10381;53.730;10.010;2022-08-01T06:00:45;138.43;;;126.53;;
20443;SDS011;10381;53.730;10.010;2022-08-01T06:04:45;148.77;;;135.95;;
20443;SDS011;10381;53.730;10.010;2022-08-01T06:08:46;139.10;;;127.28;;
20443;SDS011;10381;53.730;10.010;2022-08-01T06:12:46;130.15;;;118.07;;
20443;SDS011;10381;53.730;10.010;2022-08-01T06:16:46;119.97;;;109.03;;
20443;SDS011;10381;53.730;10.010;2022-08-01T06:20:46;122.87;;;112.50;;
20443;SDS011;10381;53.730;10.010;2022-08-01T06:24:47;114.88;;;105.07;;
20443;SDS011;10381;53.730;10.010;2022-08-01T06:28:47;103.20;;;94.27;;
20443;SDS011;10381;53.730;10.010;2022-08-01T06:32:48;71.90;;;65.72;;
20443;SDS011;10381;53.730;10.010;2022-08-01T06:36:48;37.00;;;33.60;;
20443;SDS011;10381;53.730;10.010;2022-08-01T06:40:48;21.27;;;19.17;;
20443;SDS011;10381;53.730;10.010;2022-08-01T06:44:49;14.57;;;11.77;;
20443;SDS011;10381;53.730;10.010;2022-08-01T06:48:49;18.50;;;11.83;;
20443;SDS011;10381;53.730;10.010;2022-08-01T06:52:49;19.57;;;11.13;;
20443;SDS011;10381;53.730;10.010;2022-08-01T06:56:50;14.98;;;11.80;;
20443;SDS011;10381;53.730;10.010;2022-08-01T07:00:50;28.63;;;12.27;;
20443;SDS011;10381;53.730;10.010;2022-08-01T07:04:50;24.10;;;10.90;;
20443;SDS011;10381;53.730;10.010;2022-08-01T07:08:51;19.75;;;9.48;;
20443;SDS011;10381;53.730;10.010;2022-08-01T07:12:52;17.23;;;11.63;;
20443;SDS011;10381;53.730;10.010;2022-08-01T07:16:53;17.73;;;9.95;;
20443;SDS011;10381;53.730;10.010;2022-08-01T07:20:53;22.67;;;9.80;;
20443;SDS011;10381;53.730;10.010;2022-08-01T07:24:53;21.40;;;9.37;;
20443;SDS011;10381;53.730;10.010;2022-08-01T07:28:54;26.38;;;9.45;;
20443;SDS011;10381;53.730;10.010;2022-08-01T07:32:54;11.05;;;9.55;;
20443;SDS011;10381;53.730;10.010;2022-08-01T07:36:54;18.93;;;8.43;;
20443;SDS011;10381;53.730;10.010;2022-08-01T07:40:55;37.05;;;7.28;;
20443;SDS011;10381;53.730;10.010;2022-08-01T07:44:55;14.43;;;7.33;;
20443;SDS011;10381;53.730;10.010;2022-08-01T07:48:55;12.93;;;7.07;;
20443;SDS011;10381;53.730;10.010;2022-08-01T07:52:55;11.53;;;6.43;;
20443;SDS011;10381;53.730;10.010;2022-08-01T07:56:56;23.33;;;9.10;;
20443;SDS011;10381;53.730;10.010;2022-08-01T08:00:56;16.17;;;8.45;;
20443;SDS011;10381;53.730;10.010;2022-08-01T08:04:56;28.37;;;8.97;;
20443;SDS011;10381;53.730;10.010;2022-08-01T08:08:57;15.53;;;8.27;;
20443;SDS011;10381;53.730;10.010;2022-08-01T08:12:57;15.05;;;9.70;;
20443;SDS011;10381;53.730;10.010;2022-08-01T08:16:57;20.37;;;9.47;;
20443;SDS011;10381;53.730;10.010;2022-08-01T08:20:57;11.83;;;8.37;;
20443;SDS011;10381;53.730;10.010;2022-08-01T08:24:58;18.67;;;8.73;;
20443;SDS011;10381;53.730;10.010;2022-08-01T08:28:58;16.70;;;8.32;;
20443;SDS011;10381;53.730;10.010;2022-08-01T08:32:58;23.70;;;10.00;;
20443;SDS011;10381;53.730;10.010;2022-08-01T08:36:59;11.73;;;9.20;;
20443;SDS011;10381;53.730;10.010;2022-08-01T08:40:59;13.63;;;10.10;;
20443;SDS011;10381;53.730;10.010;2022-08-01T08:45:00;10.18;;;9.00;;
20443;SDS011;10381;53.730;10.010;2022-08-01T08:49:01;9.83;;;8.40;;
20443;SDS011;10381;53.730;10.010;2022-08-01T08:53:03;13.40;;;8.68;;
20443;SDS011;10381;53.730;10.010;2022-08-01T08:57:04;11.80;;;8.25;;
20443;SDS011;10381;53.730;10.010;2022-08-01T09:01:06;8.48;;;7.32;;
20443;SDS011;10381;53.730;10.010;2022-08-01T09:05:08;9.45;;;8.50;;
20443;SDS011;10381;53.730;10.010;2022-08-01T09:09:09;18.63;;;9.10;;
20443;SDS011;10381;53.730;10.010;2022-08-01T09:13:14;12.93;;;8.68;;
20443;SDS011;10381;53.730;10.010;2022-08-01T09:17:15;12.57;;;8.73;;
20443;SDS011;10381;53.730;10.010;2022-08-01T09:21:17;12.13;;;8.93;;
20443;SDS011;10381;53.730;10.010;2022-08-01T09:25:19;15.15;;;8.82;;
20443;SDS011;10381;53.730;10.010;2022-08-01T09:29:20;23.70;;;9.83;;
20443;SDS011;10381;53.730;10.010;2022-08-01T09:33:26;14.50;;;9.07;;
20443;SDS011;10381;53.730;10.010;2022-08-01T09:38:11;10.20;;;7.82;;
20443;SDS011;10381;53.730;10.010;2022-08-01T09:42:20;10.85;;;7.85;;
20443;SDS011;10381;53.730;10.010;2022-08-01T09:46:24;14.30;;;8.93;;
20443;SDS011;10381;53.730;10.010;2022-08-01T09:50:25;10.15;;;8.55;;
20443;SDS011;10381;53.730;10.010;2022-08-01T09:54:40;14.45;;;8.88;;
20443;SDS011;10381;53.730;10.010;2022-08-01T09:58:57;12.70;;;8.23;;
20443;SDS011;10381;53.730;10.010;2022-08-01T10:02:59;18.85;;;6.78;;
20443;SDS011;10381;53.730;10.010;2022-08-01T10:07:18;15.43;;;7.97;;
20443;SDS011;10381;53.730;10.010;2022-08-01T10:11:19;14.52;;;8.32;;
20443;SDS011;10381;53.730;10.010;2022-08-01T10:15:21;19.85;;;8.05;;
20443;SDS011;10381;53.730;10.010;2022-08-01T10:19:24;9.50;;;7.82;;
20443;SDS011;10381;53.730;10.010;2022-08-01T10:23:27;9.85;;;7.63;;
20443;SDS011;10381;53.730;10.010;2022-08-01T10:27:33;12.98;;;8.73;;
20443;SDS011;10381;53.730;10.010;2022-08-01T10:31:37;13.85;;;7.32;;
20443;SDS011;10381;53.730;10.010;2022-08-01T10:35:38;15.88;;;7.45;;
20443;SDS011;10381;53.730;10.010;2022-08-01T10:39:39;11.20;;;6.38;;
20443;SDS011;10381;53.730;10.010;2022-08-01T10:43:39;9.77;;;6.40;;
20443;SDS011;10381;53.730;10.010;2022-08-01T10:47:51;9.13;;;5.53;;
20443;SDS011;10381;53.730;10.010;2022-08-01T10:51:58;7.10;;;6.40;;
20443;SDS011;10381;53.730;10.010;2022-08-01T10:56:00;7.50;;;6.53;;
20443;SDS011;10381;53.730;10.010;2022-08-01T11:00:03;8.68;;;6.60;;
20443;SDS011;10381;53.730;10.010;2022-08-01T11:04:11;9.65;;;6.82;;
20443;SDS011;10381;53.730;10.010;2022-08-01T11:08:23;10.00;;;5.80;;
20443;SDS011;10381;53.730;10.010;2022-08-01T11:12:23;6.70;;;6.10;;
20443;SDS011;10381;53.730;10.010;2022-08-01T11:16:41;18.10;;;7.57;;
20443;SDS011;10381;53.730;10.010;2022-08-01T11:20:43;12.07;;;5.40;;
20443;SDS011;10381;53.730;10.010;2022-08-01T11:24:57;9.05;;;5.38;;
20443;SDS011;10381;53.730;10.010;2022-08-01T11:29:10;8.90;;;6.28;;
20443;SDS011;10381;53.730;10.010;2022-08-01T11:33:14;6.30;;;5.32;;
20443;SDS011;10381;53.730;10.010;2022-08-01T11:37:28;11.35;;;5.10;;
20443;SDS011;10381;53.730;10.010;2022-08-01T11:41:29;7.28;;;5.03;;
20443;SDS011;10381;53.730;10.010;2022-08-01T11:45:50;7.30;;;4.88;;
20443;SDS011;10381;53.730;10.010;2022-08-01T11:49:57;7.45;;;4.95;;
20443;SDS011;10381;53.730;10.010;2022-08-01T11:53:59;20.05;;;5.32;;
20443;SDS011;10381;53.730;10.010;2022-08-01T11:58:08;13.43;;;5.67;;
20443;SDS011;10381;53.730;10.010;2022-08-01T12:02:15;5.80;;;4.90;;
20443;SDS011;10381;53.730;10.010;2022-08-01T12:06:27;7.18;;;5.10;;
20443;SDS011;10381;53.730;10.010;2022-08-01T12:10:33;7.07;;;5.68;;
20443;SDS011;10381;53.730;10.010;2022-08-01T12:14:37;6.05;;;5.45;;
20443;SDS011;10381;53.730;10.010;2022-08-01T12:18:39;5.93;;;5.22;;
20443;SDS011;10381;53.730;10.010;2022-08-01T12:22:40;7.25;;;5.03;;
20443;SDS011;10381;53.730;10.010;2022-08-01T12:26:41;8.32;;;5.30;;
20443;SDS011;10381;53.730;10.010;2022-08-01T12:30:41;7.35;;;4.75;;
20443;SDS011;10381;53.730;10.010;2022-08-01T12:34:42;9.97;;;5.43;;
20443;SDS011;10381;53.730;10.010;2022-08-01T12:38:42;5.57;;;4.80;;
20443;SDS011;10381;53.730;10.010;2022-08-01T12:42:43;6.03;;;5.43;;
20443;SDS011;10381;53.730;10.010;2022-08-01T12:46:54;10.23;;;4.75;;
20443;SDS011;10381;53.730;10.010;2022-08-01T12:50:55;8.65;;;4.97;;
20443;SDS011;10381;53.730;10.010;2022-08-01T12:55:11;7.38;;;4.70;;
20443;SDS011;10381;53.730;10.010;2022-08-01T12:59:20;8.60;;;4.63;;
20443;SDS011;10381;53.730;10.010;2022-08-01T13:03:27;7.00;;;4.95;;
20443;SDS011;10381;53.730;10.010;2022-08-01T13:07:37;6.80;;;4.43;;
20443;SDS011;10381;53.730;10.010;2022-08-01T13:11:50;7.43;;;4.75;;
20443;SDS011;10381;53.730;10.010;2022-08-01T13:16:02;7.80;;;4.50;;
20443;SDS011;10381;53.730;10.010;2022-08-01T13:20:05;8.27;;;4.28;;
20443;SDS011;10381;53.730;10.010;2022-08-01T13:28:16;9.00;;;4.95;;
20443;SDS011;10381;53.730;10.010;2022-08-01T13:32:19;6.05;;;4.90;;
20443;SDS011;10381;53.730;10.010;2022-08-01T13:36:21;9.82;;;4.70;;
20443;SDS011;10381;53.730;10.010;2022-08-01T13:40:25;4.37;;;4.07;;
20443;SDS011;10381;53.730;10.010;2022-08-01T13:44:26;6.07;;;4.38;;
20443;SDS011;10381;53.730;10.010;2022-08-01T13:48:27;4.40;;;4.10;;
20443;SDS011;10381;53.730;10.010;2022-08-01T13:52:27;7.20;;;4.70;;
20443;SDS011;10381;53.730;10.010;2022-08-01T13:56:28;6.97;;;4.18;;
20443;SDS011;10381;53.730;10.010;2022-08-01T14:00:28;7.13;;;4.60;;
20443;SDS011;10381;53.730;10.010;2022-08-01T14:04:29;5.90;;;4.60;;
20443;SDS011;10381;53.730;10.010;2022-08-01T14:08:29;8.17;;;4.80;;
20443;SDS011;10381;53.730;10.010;2022-08-01T14:12:29;20.95;;;4.75;;
20443;SDS011;10381;53.730;10.010;2022-08-01T14:16:30;11.90;;;4.60;;
20443;SDS011;10381;53.730;10.010;2022-08-01T14:20:30;5.13;;;4.63;;
20443;SDS011;10381;53.730;10.010;2022-08-01T14:24:30;10.57;;;4.47;;
20443;SDS011;10381;53.730;10.010;2022-08-01T14:28:31;10.40;;;4.53;;
20443;SDS011;10381;53.730;10.010;2022-08-01T14:32:31;8.77;;;4.63;;
20443;SDS011;10381;53.730;10.010;2022-08-01T14:36:33;6.63;;;4.20;;
20443;SDS011;10381;53.730;10.010;2022-08-01T14:40:33;9.77;;;4.83;;
20443;SDS011;10381;53.730;10.010;2022-08-01T14:44:34;5.70;;;4.00;;
20443;SDS011;10381;53.730;10.010;2022-08-01T14:48:35;6.17;;;4.00;;
20443;SDS011;10381;53.730;10.010;2022-08-01T14:52:35;4.90;;;4.15;;
20443;SDS011;10381;53.730;10.010;2022-08-01T14:56:36;4.53;;;3.92;;
20443;SDS011;10381;53.730;10.010;2022-08-01T15:00:37;10.68;;;4.32;;
20443;SDS011;10381;53.730;10.010;2022-08-01T15:04:38;6.65;;;4.00;;
20443;SDS011;10381;53.730;10.010;2022-08-01T15:08:38;7.30;;;4.38;;
20443;SDS011;10381;53.730;10.010;2022-08-01T15:12:39;4.33;;;3.80;;
20443;SDS011;10381;53.730;10.010;2022-08-01T15:16:39;5.85;;;4.68;;
20443;SDS011;10381;53.730;10.010;2022-08-01T15:20:39;5.13;;;4.30;;
20443;SDS011;10381;53.730;10.010;2022-08-01T15:24:40;6.40;;;4.03;;
20443;SDS011;10381;53.730;10.010;2022-08-01T15:28:41;9.65;;;4.32;;
20443;SDS011;10381;53.730;10.010;2022-08-01T15:32:42;7.17;;;4.70;;
20443;SDS011;10381;53.730;10.010;2022-08-01T15:36:42;14.83;;;5.00;;
20443;SDS011;10381;53.730;10.010;2022-08-01T15:40:43;9.90;;;4.03;;
20443;SDS011;10381;53.730;10.010;2022-08-01T15:44:43;10.40;;;3.90;;
20443;SDS011;10381;53.730;10.010;2022-08-01T15:48:44;8.90;;;4.00;;
20443;SDS011;10381;53.730;10.010;2022-08-01T15:52:44;12.83;;;4.63;;
20443;SDS011;10381;53.730;10.010;2022-08-01T15:56:45;10.83;;;4.73;;
20443;SDS011;10381;53.730;10.010;2022-08-01T16:00:46;11.10;;;4.80;;
20443;SDS011;10381;53.730;10.010;2022-08-01T16:04:46;11.13;;;4.63;;
20443;SDS011;10381;53.730;10.010;2022-08-01T16:08:46;10.93;;;5.13;;
20443;SDS011;10381;53.730;10.010;2022-08-01T16:12:47;7.03;;;4.53;;
20443;SDS011;10381;53.730;10.010;2022-08-01T16:16:47;7.63;;;4.57;;
20443;SDS011;10381;53.730;10.010;2022-08-01T16:20:48;7.22;;;4.88;;
20443;SDS011;10381;53.730;10.010;2022-08-01T16:24:48;21.05;;;4.90;;
20443;SDS011;10381;53.730;10.010;2022-08-01T16:28:49;6.95;;;4.90;;
20443;SDS011;10381;53.730;10.010;2022-08-01T16:32:51;9.40;;;4.63;;
20443;SDS011;10381;53.730;10.010;2022-08-01T16:36:52;8.18;;;4.20;;
20443;SDS011;10381;53.730;10.010;2022-08-01T16:40:54;11.18;;;4.70;;
20443;SDS011;10381;53.730;10.010;2022-08-01T16:44:55;7.50;;;4.63;;
20443;SDS011;10381;53.730;10.010;2022-08-01T16:48:55;9.17;;;4.70;;
20443;SDS011;10381;53.730;10.010;2022-08-01T16:52:55;5.50;;;4.35;;
20443;SDS011;10381;53.730;10.010;2022-08-01T16:56:56;14.03;;;4.27;;
20443;SDS011;10381;53.730;10.010;2022-08-01T17:00:56;7.77;;;4.40;;
20443;SDS011;10381;53.730;10.010;2022-08-01T17:04:56;11.70;;;3.80;;
20443;SDS011;10381;53.730;10.010;2022-08-01T17:08:57;7.73;;;4.07;;
20443;SDS011;10381;53.730;10.010;2022-08-01T17:12:58;4.95;;;4.25;;
20443;SDS011;10381;53.730;10.010;2022-08-01T17:16:59;4.35;;;3.78;;
20443;SDS011;10381;53.730;10.010;2022-08-01T17:20:59;9.60;;;5.00;;
20443;SDS011;10381;53.730;10.010;2022-08-01T17:24:59;7.18;;;4.95;;
20443;SDS011;10381;53.730;10.010;2022-08-01T17:29:00;6.40;;;4.03;;
20443;SDS011;10381;53.730;10.010;2022-08-01T17:33:00;5.23;;;4.53;;
20443;SDS011;10381;53.730;10.010;2022-08-01T17:37:00;7.23;;;4.20;;
20443;SDS011;10381;53.730;10.010;2022-08-01T17:41:01;14.73;;;3.67;;
20443;SDS011;10381;53.730;10.010;2022-08-01T17:45:02;14.52;;;4.03;;
20443;SDS011;10381;53.730;10.010;2022-08-01T17:49:02;13.32;;;4.95;;
20443;SDS011;10381;53.730;10.010;2022-08-01T17:53:04;11.20;;;4.53;;
20443;SDS011;10381;53.730;10.010;2022-08-01T17:57:05;7.80;;;4.20;;
20443;SDS011;10381;53.730;10.010;2022-08-01T18:01:05;10.15;;;4.47;;
20443;SDS011;10381;53.730;10.010;2022-08-01T18:05:05;5.40;;;3.87;;
20443;SDS011;10381;53.730;10.010;2022-08-01T18:09:07;9.77;;;4.80;;
20443;SDS011;10381;53.730;10.010;2022-08-01T18:13:08;11.10;;;5.03;;
20443;SDS011;10381;53.730;10.010;2022-08-01T18:17:09;13.13;;;5.20;;
20443;SDS011;10381;53.730;10.010;2022-08-01T18:21:10;5.22;;;4.47;;
20443;SDS011;10381;53.730;10.010;2022-08-01T18:25:11;11.32;;;4.32;;
20443;SDS011;10381;53.730;10.010;2022-08-01T18:29:11;15.13;;;4.13;;
20443;SDS011;10381;53.730;10.010;2022-08-01T18:33:12;7.95;;;4.25;;
20443;SDS011;10381;53.730;10.010;2022-08-01T18:37:12;6.60;;;4.10;;
20443;SDS011;10381;53.730;10.010;2022-08-01T18:41:15;11.05;;;4.40;;
20443;SDS011;10381;53.730;10.010;2022-08-01T18:45:15;13.95;;;4.40;;
20443;SDS011;10381;53.730;10.010;2022-08-01T18:49:16;4.85;;;3.78;;
20443;SDS011;10381;53.730;10.010;2022-08-01T18:53:18;8.00;;;3.88;;
20443;SDS011;10381;53.730;10.010;2022-08-01T18:57:19;8.60;;;3.97;;
20443;SDS011;10381;53.730;10.010;2022-08-01T19:01:21;4.63;;;3.30;;
20443;SDS011;10381;53.730;10.010;2022-08-01T19:05:21;9.90;;;4.00;;
20443;SDS011;10381;53.730;10.010;2022-08-01T19:09:22;6.07;;;4.20;;
20443;SDS011;10381;53.730;10.010;2022-08-01T19:13:22;5.95;;;3.92;;
20443;SDS011;10381;53.730;10.010;2022-08-01T19:17:25;5.07;;;3.28;;
20443;SDS011;10381;53.730;10.010;2022-08-01T19:21:26;8.33;;;4.00;;
20443;SDS011;10381;53.730;10.010;2022-08-01T19:25:26;13.35;;;3.75;;
20443;SDS011;10381;53.730;10.010;2022-08-01T19:29:30;7.53;;;4.07;;
20443;SDS011;10381;53.730;10.010;2022-08-01T19:33:32;10.18;;;4.75;;
20443;SDS011;10381;53.730;10.010;2022-08-01T19:37:37;12.00;;;4.18;;
20443;SDS011;10381;53.730;10.010;2022-08-01T19:41:46;9.32;;;4.85;;
20443;SDS011;10381;53.730;10.010;2022-08-01T19:45:50;16.08;;;5.00;;
20443;SDS011;10381;53.730;10.010;2022-08-01T19:49:51;11.50;;;4.72;;
20443;SDS011;10381;53.730;10.010;2022-08-01T19:53:52;6.03;;;4.80;;
20443;SDS011;10381;53.730;10.010;2022-08-01T19:57:53;12.82;;;5.05;;
20443;SDS011;10381;53.730;10.010;2022-08-01T20:01:57;10.00;;;5.10;;
20443;SDS011;10381;53.730;10.010;2022-08-01T20:05:59;22.98;;;6.28;;
20443;SDS011;10381;53.730;10.010;2022-08-01T20:10:02;9.15;;;5.70;;
20443;SDS011;10381;53.730;10.010;2022-08-01T20:14:03;6.20;;;5.28;;
20443;SDS011;10381;53.730;10.010;2022-08-01T20:18:04;10.10;;;6.10;;
20443;SDS011;10381;53.730;10.010;2022-08-01T20:22:05;13.73;;;5.78;;
20443;SDS011;10381;53.730;10.010;2022-08-01T20:26:06;10.38;;;6.95;;
20443;SDS011;10381;53.730;10.010;2022-08-01T20:30:10;6.82;;;6.05;;
20443;SDS011;10381;53.730;10.010;2022-08-01T20:34:11;9.30;;;6.18;;
20443;SDS011;10381;53.730;10.010;2022-08-01T20:38:14;17.13;;;7.03;;
20443;SDS011;10381;53.730;10.010;2022-08-01T20:42:16;7.47;;;6.10;;
20443;SDS011;10381;53.730;10.010;2022-08-01T20:46:16;14.23;;;6.95;;
20443;SDS011;10381;53.730;10.010;2022-08-01T20:50:17;8.45;;;7.18;;
20443;SDS011;10381;53.730;10.010;2022-08-01T20:54:36;16.38;;;6.78;;
20443;SDS011;10381;53.730;10.010;2022-08-01T21:03:01;10.13;;;7.20;;
20443;SDS011;10381;53.730;10.010;2022-08-01T21:07:10;15.27;;;7.93;;
20443;SDS011;10381;53.730;10.010;2022-08-01T21:11:20;12.63;;;7.97;;
20443;SDS011;10381;53.730;10.010;2022-08-01T21:19:40;9.25;;;6.93;;
20443;SDS011;10381;53.730;10.010;2022-08-01T21:23:51;9.55;;;6.85;;
20443;SDS011;10381;53.730;10.010;2022-08-01T21:27:52;10.63;;;7.15;;
20443;SDS011;10381;53.730;10.010;2022-08-01T21:31:53;14.20;;;7.80;;
20443;SDS011;10381;53.730;10.010;2022-08-01T21:36:16;12.10;;;7.18;;
20443;SDS011;10381;53.730;10.010;2022-08-01T21:40:21;13.07;;;7.22;;
20443;SDS011;10381;53.730;10.010;2022-08-01T21:44:23;13.43;;;7.20;;
20443;SDS011;10381;53.730;10.010;2022-08-01T21:48:24;9.60;;;7.50;;
20443;SDS011;10381;53.730;10.010;2022-08-01T21:52:24;9.60;;;7.45;;
20443;SDS011;10381;53.730;10.010;2022-08-01T22:01:26;10.45;;;6.72;;
20443;SDS011;10381;53.730;10.010;2022-08-01T22:05:38;10.95;;;7.80;;
20443;SDS011;10381;53.730;10.010;2022-08-01T22:09:43;23.60;;;11.25;;
20443;SDS011;10381;53.730;10.010;2022-08-01T22:13:45;14.57;;;7.85;;
20443;SDS011;10381;53.730;10.010;2022-08-01T22:17:46;18.90;;;8.77;;
20443;SDS011;10381;53.730;10.010;2022-08-01T22:21:48;9.88;;;7.97;;
20443;SDS011;10381;53.730;10.010;2022-08-01T22:25:52;12.25;;;8.82;;
20443;SDS011;10381;53.730;10.010;2022-08-01T22:29:57;18.70;;;9.98;;
20443;SDS011;10381;53.730;10.010;2022-08-01T22:34:02;16.20;;;9.68;;
20443;SDS011;10381;53.730;10.010;2022-08-01T22:38:02;10.50;;;9.00;;
20443;SDS011;10381;53.730;10.010;2022-08-01T22:42:03;10.45;;;9.10;;
20443;SDS011;10381;53.730;10.010;2022-08-01T22:50:37;15.57;;;10.20;;
20443;SDS011;10381;53.730;10.010;2022-08-01T22:54:43;13.00;;;9.75;;
20443;SDS011;10381;53.730;10.010;2022-08-01T22:58:48;14.85;;;11.07;;
20443;SDS011;10381;53.730;10.010;2022-08-01T23:02:52;16.48;;;11.23;;
20443;SDS011;10381;53.730;10.010;2022-08-01T23:06:53;10.73;;;9.73;;
20443;SDS011;10381;53.730;10.010;2022-08-01T23:10:58;15.35;;;10.43;;
20443;SDS011;10381;53.730;10.010;2022-08-01T23:15:00;12.80;;;11.48;;
20443;SDS011;10381;53.730;10.010;2022-08-01T23:19:00;22.42;;;12.27;;
20443;SDS011;10381;53.730;10.010;2022-08-01T23:23:01;12.30;;;11.00;;
20443;SDS011;10381;53.730;10.010;2022-08-01T23:27:02;17.65;;;11.50;;
20443;SDS011;10381;53.730;10.010;2022-08-01T23:31:24;16.77;;;9.95;;
20443;SDS011;10381;53.730;10.010;2022-08-01T23:35:28;15.32;;;10.43;;
20443;SDS011;10381;53.730;10.010;2022-08-01T23:39:29;12.57;;;11.38;;
20443;SDS011;10381;53.730;10.010;2022-08-01T23:43:29;12.60;;;10.17;;
20443;SDS011;10381;53.730;10.010;2022-08-01T23:47:29;11.27;;;10.13;;
20443;SDS011;10381;53.730;10.010;2022-08-01T23:51:30;16.17;;;10.73;;
20443;SDS011;10381;53.730;10.010;2022-08-01T23:55:30;13.20;;;10.10;;
20443;SDS011;10381;53.730;10.010;2022-08-01T23:59:30;21.63;;;9.83;;
